createdAt,value
2019-02-22T00:01:29.148Z,28.70
2019-02-22T00:03:56.034Z,35.07
2019-02-22T00:06:22.579Z,36.50
2019-02-22T00:08:49.196Z,29.07
2019-02-22T00:11:15.765Z,32.07
2019-02-22T00:13:42.243Z,34.20
2019-02-22T00:16:08.785Z,23.67
2019-02-22T00:18:35.333Z,31.00
2019-02-22T00:21:01.974Z,34.03
2019-02-22T00:23:28.502Z,32.87
2019-02-22T00:25:55.495Z,32.20
2019-02-22T00:28:22.571Z,24.80
2019-02-22T00:30:50.508Z,33.77
2019-02-22T00:33:16.959Z,30.87
2019-02-22T00:35:43.784Z,30.33
2019-02-22T00:38:10.307Z,22.23
2019-02-22T00:40:36.727Z,30.33
2019-02-22T00:43:03.264Z,25.30
2019-02-22T00:45:29.789Z,28.33
2019-02-22T00:47:56.292Z,29.17
2019-02-22T00:50:22.992Z,26.30
2019-02-22T00:52:49.415Z,32.73
2019-02-22T00:55:16.216Z,28.67
2019-02-22T00:57:43.022Z,30.63
2019-02-22T01:00:09.777Z,34.23
2019-02-22T01:02:36.288Z,26.77
2019-02-22T01:05:03.095Z,27.63
2019-02-22T01:07:30.770Z,31.33
2019-02-22T01:09:59.216Z,26.57
2019-02-22T01:12:25.648Z,30.57
2019-02-22T01:14:52.439Z,31.20
2019-02-22T01:17:19.260Z,26.90
2019-02-22T01:19:46.044Z,26.60
2019-02-22T01:22:12.918Z,27.60
2019-02-22T01:24:39.784Z,27.60
2019-02-22T01:27:06.289Z,26.40
2019-02-22T01:29:32.858Z,27.30
2019-02-22T01:31:59.659Z,29.93
2019-02-22T01:34:26.229Z,31.43
2019-02-22T01:36:54.653Z,31.30
2019-02-22T01:39:21.670Z,29.83
2019-02-22T01:41:48.521Z,32.50
2019-02-22T01:44:20.108Z,26.73
2019-02-22T01:46:46.650Z,30.53
2019-02-22T01:49:13.506Z,26.57
2019-02-22T01:51:40.036Z,28.40
2019-02-22T01:54:06.755Z,25.07
2019-02-22T01:56:33.180Z,28.77
2019-02-22T01:58:59.867Z,27.20
2019-02-22T02:01:26.372Z,26.50
2019-02-22T02:03:53.208Z,23.20
2019-02-22T02:06:19.835Z,25.20
2019-02-22T02:08:46.345Z,31.20
2019-02-22T02:11:12.884Z,32.60
2019-02-22T02:13:39.335Z,32.63
2019-02-22T02:16:05.889Z,32.90
2019-02-22T02:18:33.400Z,31.50
2019-02-22T02:20:59.915Z,36.73
2019-02-22T02:23:26.444Z,30.27
2019-02-22T02:25:53.228Z,36.60
2019-02-22T02:28:19.772Z,38.07
2019-02-22T02:30:46.394Z,31.87
2019-02-22T02:33:13.188Z,42.63
2019-02-22T02:39:23.841Z,35.33
2019-02-22T02:41:51.700Z,37.20
2019-02-22T02:44:18.413Z,33.43
2019-02-22T02:46:45.225Z,37.90
2019-02-22T02:49:12.063Z,37.20
2019-02-22T02:51:39.796Z,34.63
2019-02-22T02:54:06.292Z,37.50
2019-02-22T02:56:33.054Z,35.07
2019-02-22T02:58:59.467Z,36.03
2019-02-22T03:01:25.890Z,33.07
2019-02-22T03:03:52.446Z,34.00
2019-02-22T03:06:21.176Z,35.43
2019-02-22T03:08:47.735Z,33.33
2019-02-22T03:11:20.855Z,38.57
2019-02-22T03:13:42.830Z,36.20
2019-02-22T03:16:09.221Z,32.60
2019-02-22T03:18:35.619Z,33.93
2019-02-22T03:21:03.011Z,33.33
2019-02-22T03:23:29.677Z,34.80
2019-02-22T03:25:56.357Z,37.37
2019-02-22T03:28:22.842Z,37.50
2019-02-22T03:30:49.616Z,32.50
2019-02-22T03:33:17.371Z,36.83
2019-02-22T03:35:44.122Z,32.97
2019-02-22T03:38:10.894Z,34.33
2019-02-22T03:40:37.674Z,34.93
2019-02-22T03:43:04.108Z,36.00
2019-02-22T03:45:30.877Z,36.17
2019-02-22T03:47:57.677Z,37.83
2019-02-22T03:50:24.055Z,35.60
2019-02-22T03:53:08.788Z,30.47
2019-02-22T03:55:35.272Z,32.20
2019-02-22T03:58:02.166Z,38.33
2019-02-22T04:00:29.627Z,34.33
2019-02-22T04:02:56.045Z,32.20
2019-02-22T04:05:22.439Z,33.13
2019-02-22T04:07:49.091Z,39.30
2019-02-22T04:10:15.596Z,40.63
2019-02-22T04:12:42.460Z,31.57
2019-02-22T04:15:08.999Z,31.90
2019-02-22T04:17:35.490Z,36.37
2019-02-22T04:20:02.586Z,36.40
2019-02-22T04:22:29.079Z,46.20
2019-02-22T04:24:55.854Z,46.40
2019-02-22T04:27:22.351Z,50.80
2019-02-22T04:29:48.824Z,48.40
2019-02-22T04:32:15.338Z,36.80
2019-02-22T04:34:42.134Z,40.90
2019-02-22T04:37:08.618Z,42.77
2019-02-22T04:39:35.366Z,43.30
2019-02-22T04:42:02.750Z,36.67
2019-02-22T04:44:29.164Z,40.73
2019-02-22T04:46:55.677Z,49.67
2019-02-22T04:49:22.255Z,39.87
2019-02-22T04:51:48.934Z,41.80
2019-02-22T04:54:16.509Z,46.27
2019-02-22T04:56:43.184Z,39.07
2019-02-22T04:59:09.675Z,46.00
2019-02-22T05:01:36.089Z,38.10
2019-02-22T05:04:02.578Z,39.00
2019-02-22T05:06:28.982Z,54.93
2019-02-22T05:08:55.474Z,32.67
2019-02-22T05:11:21.876Z,40.33
2019-02-22T05:13:48.630Z,44.37
2019-02-22T05:16:15.080Z,40.23
2019-02-22T05:18:41.543Z,48.53
2019-02-22T05:21:08.014Z,42.07
2019-02-22T05:23:34.746Z,31.77
2019-02-22T05:26:01.158Z,39.33
2019-02-22T05:28:27.946Z,40.00
2019-02-22T05:30:54.562Z,47.73
2019-02-22T05:33:22.089Z,51.40
2019-02-22T05:35:48.621Z,40.87
2019-02-22T05:38:15.357Z,54.17
2019-02-22T05:40:41.896Z,52.30
2019-02-22T05:43:09.286Z,45.57
2019-02-22T05:45:36.023Z,51.90
2019-02-22T05:48:02.786Z,40.43
2019-02-22T05:50:29.396Z,41.87
2019-02-22T05:52:56.205Z,50.43
2019-02-22T05:55:22.699Z,39.57
2019-02-22T05:57:49.366Z,42.43
2019-02-22T06:00:16.726Z,48.63
2019-02-22T06:02:43.217Z,62.57
2019-02-22T06:05:09.785Z,44.90
2019-02-22T06:07:36.174Z,46.53
2019-02-22T06:10:05.087Z,43.53
2019-02-22T06:12:34.615Z,44.13
2019-02-22T06:15:00.376Z,40.57
2019-02-22T06:17:26.890Z,50.87
2019-02-22T06:19:53.495Z,52.30
2019-02-22T06:22:28.952Z,52.80
2019-02-22T06:24:48.639Z,43.93
2019-02-22T06:27:15.152Z,43.67
2019-02-22T06:29:42.737Z,45.43
2019-02-22T06:32:09.231Z,51.60
2019-02-22T06:34:36.719Z,57.63
2019-02-22T06:37:03.530Z,54.67
2019-02-22T06:39:30.048Z,45.70
2019-02-22T06:41:56.797Z,56.27
2019-02-22T06:44:23.501Z,57.77
2019-02-22T06:46:50.134Z,55.10
2019-02-22T06:49:16.873Z,51.70
2019-02-22T06:51:43.615Z,41.17
2019-02-22T06:54:10.048Z,39.83
2019-02-22T06:56:37.653Z,42.30
2019-02-22T06:59:04.463Z,59.33
2019-02-22T07:01:31.139Z,61.13
2019-02-22T07:03:57.736Z,65.10
2019-02-22T07:06:24.498Z,50.87
2019-02-22T07:08:51.489Z,49.77
2019-02-22T07:11:19.889Z,57.63
2019-02-22T07:13:46.666Z,58.60
2019-02-22T07:16:13.474Z,45.77
2019-02-22T07:18:40.200Z,49.67
2019-02-22T07:21:06.882Z,67.77
2019-02-22T07:23:33.373Z,63.03
2019-02-22T07:25:59.775Z,43.80
2019-02-22T07:28:26.282Z,61.70
2019-02-22T07:30:52.797Z,54.77
2019-02-22T07:33:19.197Z,56.87
2019-02-22T07:35:46.005Z,62.97
2019-02-22T07:38:12.497Z,59.33
2019-02-22T07:40:40.223Z,64.73
2019-02-22T07:43:08.235Z,64.50
2019-02-22T07:45:35.170Z,59.57
2019-02-22T07:48:01.705Z,55.83
2019-02-22T07:50:28.476Z,51.97
2019-02-22T07:52:55.238Z,48.83
2019-02-22T07:55:21.648Z,49.60
2019-02-22T07:57:48.295Z,59.73
2019-02-22T08:00:15.189Z,58.10
2019-02-22T08:02:41.689Z,59.10
2019-02-22T08:05:10.226Z,60.53
2019-02-22T08:07:37.006Z,61.97
2019-02-22T08:10:04.352Z,57.53
2019-02-22T08:12:30.960Z,66.23
2019-02-22T08:14:57.473Z,61.63
2019-02-22T08:17:24.371Z,55.43
2019-02-22T08:19:51.071Z,58.40
2019-02-22T08:22:17.452Z,63.63
2019-02-22T08:24:43.849Z,60.97
2019-02-22T08:27:10.257Z,55.67
2019-02-22T08:29:38.338Z,51.80
2019-02-22T08:32:04.914Z,57.10
2019-02-22T08:34:31.316Z,48.10
2019-02-22T08:36:57.925Z,51.70
2019-02-22T08:39:24.565Z,50.07
2019-02-22T08:41:51.073Z,47.07
2019-02-22T08:44:17.475Z,48.93
2019-02-22T08:46:44.914Z,43.67
2019-02-22T08:49:11.653Z,39.53
2019-02-22T08:51:38.403Z,46.27
2019-02-22T08:54:04.969Z,44.30
2019-02-22T08:56:31.721Z,42.80
2019-02-22T08:58:58.456Z,36.33
2019-02-22T09:01:25.258Z,39.67
2019-02-22T09:03:51.745Z,42.07
2019-02-22T09:06:18.523Z,43.23
2019-02-22T09:08:44.941Z,37.63
2019-02-22T09:11:11.718Z,38.13
2019-02-22T09:13:43.610Z,37.83
2019-02-22T09:16:08.130Z,37.70
2019-02-22T09:18:34.914Z,38.43
2019-02-22T09:21:02.323Z,42.40
2019-02-22T09:23:28.813Z,37.60
2019-02-22T09:25:55.214Z,38.07
2019-02-22T09:28:21.884Z,32.07
2019-02-22T09:30:48.671Z,32.53
2019-02-22T09:33:15.180Z,36.00
2019-02-22T09:35:41.597Z,31.83
2019-02-22T09:38:08.008Z,32.27
2019-02-22T09:40:34.833Z,28.50
2019-02-22T09:43:01.575Z,30.07
2019-02-22T09:45:28.083Z,32.20
2019-02-22T09:47:54.914Z,28.83
2019-02-22T09:50:21.675Z,29.27
2019-02-22T09:52:48.122Z,26.97
2019-02-22T09:55:14.613Z,33.37
2019-02-22T09:57:41.139Z,28.17
2019-02-22T10:00:13.638Z,27.97
2019-02-22T10:02:40.323Z,25.13
2019-02-22T10:05:08.850Z,22.83
2019-02-22T10:07:35.539Z,23.90
2019-02-22T10:10:06.763Z,22.30
2019-02-22T10:12:33.169Z,21.70
2019-02-22T10:14:59.829Z,19.90
2019-02-22T10:17:26.711Z,18.00
2019-02-22T10:19:53.646Z,18.57
2019-02-22T10:22:20.405Z,23.10
2019-02-22T10:24:47.062Z,19.07
2019-02-22T10:27:13.576Z,18.43
2019-02-22T10:29:40.091Z,17.03
2019-02-22T10:32:07.766Z,18.70
2019-02-22T10:34:34.295Z,21.63
2019-02-22T10:37:00.817Z,18.13
2019-02-22T10:39:28.325Z,21.53
2019-02-22T10:41:54.782Z,17.27
2019-02-22T10:44:21.556Z,14.03
2019-02-22T10:46:47.981Z,18.20
2019-02-22T10:49:14.467Z,17.23
2019-02-22T10:51:41.371Z,15.80
2019-02-22T10:54:07.874Z,13.10
2019-02-22T10:56:34.537Z,16.27
2019-02-22T10:59:02.291Z,20.47
2019-02-22T11:01:28.798Z,12.73
2019-02-22T11:03:55.346Z,12.70
2019-02-22T11:06:22.022Z,16.87
2019-02-22T11:08:48.512Z,17.77
2019-02-22T11:11:15.174Z,17.20
2019-02-22T11:13:41.607Z,14.63
2019-02-22T11:16:08.496Z,13.67
2019-02-22T11:18:34.923Z,12.40
2019-02-22T11:21:01.529Z,12.63
2019-02-22T11:23:29.013Z,15.53
2019-02-22T11:25:56.545Z,13.60
2019-02-22T11:28:22.942Z,15.17
2019-02-22T11:30:50.457Z,13.77
2019-02-22T11:33:17.214Z,13.37
2019-02-22T11:35:43.881Z,11.47
2019-02-22T11:38:10.642Z,13.57
2019-02-22T11:40:37.093Z,11.93
2019-02-22T11:43:03.730Z,12.33
2019-02-22T11:45:31.438Z,10.67
2019-02-22T11:48:08.418Z,9.97
2019-02-22T11:50:26.123Z,14.73
2019-02-22T11:52:52.518Z,12.57
2019-02-22T11:55:19.111Z,12.43
2019-02-22T11:57:45.707Z,10.43
2019-02-22T12:00:15.893Z,12.73
2019-02-22T12:02:45.109Z,11.27
2019-02-22T12:05:12.438Z,11.17
2019-02-22T12:07:39.043Z,10.93
2019-02-22T12:10:07.062Z,9.63
2019-02-22T12:12:33.775Z,11.97
2019-02-22T12:15:00.495Z,11.03
2019-02-22T12:17:27.095Z,11.57
2019-02-22T12:19:54.581Z,10.77
2019-02-22T12:22:20.996Z,10.10
2019-02-22T12:24:47.471Z,8.47
2019-02-22T12:27:14.267Z,9.30
2019-02-22T12:29:40.810Z,9.83
2019-02-22T12:32:07.296Z,10.30
2019-02-22T12:34:33.962Z,7.87
2019-02-22T12:37:00.761Z,8.60
2019-02-22T12:39:27.539Z,10.10
2019-02-22T12:41:53.982Z,8.30
2019-02-22T12:44:21.463Z,8.37
2019-02-22T12:46:48.184Z,9.07
2019-02-22T12:49:14.962Z,8.50
2019-02-22T12:51:41.448Z,8.63
2019-02-22T12:54:07.977Z,8.40
2019-02-22T12:59:03.131Z,10.97
2019-02-22T13:01:29.526Z,9.27
2019-02-22T13:03:56.093Z,9.70
2019-02-22T13:06:22.860Z,7.37
2019-02-22T13:08:49.608Z,10.40
2019-02-22T13:11:16.396Z,7.20
2019-02-22T13:13:42.896Z,12.03
2019-02-22T13:16:09.690Z,6.90
2019-02-22T13:18:36.194Z,6.20
2019-02-22T13:21:03.866Z,6.43
2019-02-22T13:23:30.345Z,7.00
2019-02-22T13:25:57.187Z,6.13
2019-02-22T13:28:23.714Z,6.20
2019-02-22T13:30:50.164Z,5.27
2019-02-22T13:33:16.646Z,4.30
2019-02-22T13:35:44.327Z,7.57
2019-02-22T13:38:10.708Z,5.77
2019-02-22T13:40:38.488Z,7.87
2019-02-22T13:43:05.445Z,6.13
2019-02-22T13:45:32.119Z,9.13
2019-02-22T13:47:58.683Z,7.53
2019-02-22T13:50:25.239Z,6.90
2019-02-22T13:52:51.635Z,5.73
2019-02-22T13:55:18.113Z,7.27
2019-02-22T13:57:44.905Z,12.07
2019-02-22T14:00:14.791Z,8.53
2019-02-22T14:02:41.535Z,7.80
2019-02-22T14:05:08.518Z,6.47
2019-02-22T14:07:35.115Z,4.37
2019-02-22T14:10:01.520Z,7.07
2019-02-22T14:12:28.310Z,8.57
2019-02-22T14:14:54.719Z,6.80
2019-02-22T14:17:21.393Z,7.90
2019-02-22T14:19:48.056Z,7.73
2019-02-22T14:22:14.572Z,6.70
2019-02-22T14:24:41.371Z,8.50
2019-02-22T14:27:07.887Z,5.33
2019-02-22T14:29:34.820Z,8.10
2019-02-22T14:32:01.261Z,6.13
2019-02-22T14:34:28.019Z,7.60
2019-02-22T14:36:54.433Z,8.17
2019-02-22T14:39:22.022Z,6.43
2019-02-22T14:41:48.794Z,8.07
2019-02-22T14:44:15.214Z,7.07
2019-02-22T14:46:41.979Z,8.00
2019-02-22T14:49:08.751Z,13.67
2019-02-22T14:51:35.161Z,10.73
2019-02-22T14:54:02.682Z,5.13
2019-02-22T14:56:29.179Z,6.70
2019-02-22T14:58:55.575Z,5.63
2019-02-22T15:01:22.070Z,5.17
2019-02-22T15:03:48.484Z,7.63
2019-02-22T15:06:15.005Z,10.53
2019-02-22T15:08:41.610Z,6.00
2019-02-22T15:11:08.276Z,9.37
2019-02-22T15:13:34.671Z,8.70
2019-02-22T15:16:05.627Z,6.47
2019-02-22T15:18:32.175Z,7.00
2019-02-22T15:20:58.577Z,6.87
2019-02-22T15:23:24.974Z,7.77
2019-02-22T15:25:51.683Z,5.03
2019-02-22T15:28:18.230Z,6.90
2019-02-22T15:30:45.382Z,6.17
2019-02-22T15:33:12.530Z,5.40
2019-02-22T15:35:39.099Z,4.60
2019-02-22T15:38:05.644Z,6.23
2019-02-22T15:40:32.254Z,7.33
2019-02-22T15:42:58.681Z,5.57
2019-02-22T15:45:25.095Z,6.30
2019-02-22T15:47:52.015Z,6.87
2019-02-22T15:50:18.784Z,7.97
2019-02-22T15:52:46.493Z,5.43
2019-02-22T15:55:14.443Z,4.67
2019-02-22T15:57:41.081Z,6.27
2019-02-22T16:00:23.222Z,7.97
2019-02-22T16:02:49.821Z,5.57
2019-02-22T16:05:25.274Z,8.30
2019-02-22T16:07:51.775Z,7.23
2019-02-22T16:10:18.467Z,9.17
2019-02-22T16:12:46.164Z,8.07
2019-02-22T16:15:14.645Z,6.47
2019-02-22T16:17:41.091Z,4.63
2019-02-22T16:20:07.762Z,5.80
2019-02-22T16:22:34.411Z,6.53
2019-02-22T16:25:00.913Z,7.57
2019-02-22T16:27:31.062Z,5.67
2019-02-22T16:29:57.518Z,6.00
2019-02-22T16:32:26.810Z,7.93
2019-02-22T16:34:54.623Z,6.73
2019-02-22T16:37:21.393Z,5.87
2019-02-22T16:39:48.004Z,6.87
2019-02-22T16:42:14.788Z,7.57
2019-02-22T16:44:41.443Z,7.83
2019-02-22T16:47:07.968Z,6.63
2019-02-22T16:49:35.468Z,8.63
2019-02-22T16:52:02.219Z,6.60
2019-02-22T16:54:28.887Z,5.67
2019-02-22T16:56:55.429Z,8.40
2019-02-22T16:59:21.865Z,10.60
2019-02-22T17:01:48.671Z,13.67
2019-02-22T17:04:15.276Z,7.50
2019-02-22T17:06:43.235Z,6.03
2019-02-22T17:09:09.997Z,9.00
2019-02-22T17:11:37.004Z,8.90
2019-02-22T17:14:03.533Z,6.77
2019-02-22T17:16:30.030Z,11.97
2019-02-22T17:18:56.464Z,13.60
2019-02-22T17:21:22.875Z,18.33
2019-02-22T17:23:49.381Z,15.77
2019-02-22T17:26:16.164Z,9.70
2019-02-22T17:28:42.798Z,8.97
2019-02-22T17:31:09.311Z,9.23
2019-02-22T17:33:35.814Z,5.77
2019-02-22T17:36:02.222Z,5.77
2019-02-22T17:38:28.918Z,4.27
2019-02-22T17:40:55.586Z,6.73
2019-02-22T17:43:23.256Z,3.87
2019-02-22T17:45:50.674Z,5.80
2019-02-22T17:48:18.127Z,4.80
2019-02-22T17:50:44.986Z,6.10
2019-02-22T17:53:11.397Z,8.07
2019-02-22T17:55:38.035Z,6.53
2019-02-22T17:58:04.915Z,5.90
2019-02-22T18:00:31.691Z,5.77
2019-02-22T18:02:58.639Z,5.00
2019-02-22T18:05:25.430Z,3.67
2019-02-22T18:07:52.132Z,6.20
2019-02-22T18:10:19.033Z,5.23
2019-02-22T18:12:45.979Z,7.63
2019-02-22T18:15:14.349Z,7.13
2019-02-22T18:17:43.045Z,5.50
2019-02-22T18:20:09.768Z,5.20
2019-02-22T18:22:36.258Z,4.40
2019-02-22T18:25:05.627Z,4.43
2019-02-22T18:27:32.208Z,3.97
2019-02-22T18:29:58.783Z,3.33
2019-02-22T18:32:25.191Z,4.63
2019-02-22T18:34:51.631Z,3.77
2019-02-22T18:37:18.050Z,4.00
2019-02-22T18:39:44.491Z,6.43
2019-02-22T18:42:11.021Z,6.00
2019-02-22T18:44:37.506Z,5.53
2019-02-22T18:47:04.966Z,2.67
2019-02-22T18:49:31.924Z,6.40
2019-02-22T18:51:58.690Z,3.27
2019-02-22T18:54:27.544Z,4.40
2019-02-22T18:56:54.444Z,4.43
2019-02-22T18:59:20.951Z,4.13
2019-02-22T19:01:47.490Z,5.77
2019-02-22T19:04:15.165Z,6.53
2019-02-22T19:06:41.602Z,7.13
2019-02-22T19:09:08.313Z,5.50
2019-02-22T19:11:35.302Z,6.67
2019-02-22T19:14:01.885Z,4.17
2019-02-22T19:16:28.301Z,5.73
2019-02-22T19:18:54.808Z,3.40
2019-02-22T19:21:22.199Z,7.37
2019-02-22T19:23:48.872Z,3.73
2019-02-22T19:26:15.574Z,3.37
2019-02-22T19:28:42.362Z,6.13
2019-02-22T19:31:08.855Z,10.20
2019-02-22T19:33:35.259Z,16.23
2019-02-22T19:36:01.687Z,12.60
2019-02-22T19:38:28.390Z,16.97
2019-02-22T19:40:54.898Z,15.80
2019-02-22T19:43:21.312Z,22.80
2019-02-22T19:45:48.072Z,22.87
2019-02-22T19:48:14.817Z,16.00
2019-02-22T19:50:41.898Z,11.20
2019-02-22T19:53:09.436Z,13.83
2019-02-22T19:55:35.929Z,25.40
2019-02-22T19:58:02.335Z,25.93
2019-02-22T20:00:28.728Z,18.83
2019-02-22T20:02:55.509Z,15.10
2019-02-22T20:05:22.398Z,10.30
2019-02-22T20:07:48.914Z,10.00
2019-02-22T20:10:21.365Z,9.17
2019-02-22T20:12:49.877Z,9.90
2019-02-22T20:15:16.923Z,9.03
2019-02-22T20:17:53.241Z,8.63
2019-02-22T20:20:16.428Z,8.53
2019-02-22T20:22:43.298Z,10.67
2019-02-22T20:25:09.912Z,8.83
2019-02-22T20:27:36.492Z,8.50
2019-02-22T20:30:06.505Z,8.13
2019-02-22T20:32:33.484Z,8.03
2019-02-22T20:34:59.970Z,8.10
2019-02-22T20:37:26.667Z,7.77
2019-02-22T20:39:53.170Z,7.87
2019-02-22T20:42:19.926Z,8.50
2019-02-22T20:44:46.487Z,6.50
2019-02-22T20:47:13.010Z,7.93
2019-02-22T20:49:39.484Z,12.83
2019-02-22T20:52:06.249Z,13.50
2019-02-22T20:54:32.653Z,10.50
2019-02-22T20:56:59.204Z,7.17
2019-02-22T20:59:25.977Z,10.30
2019-02-22T21:01:52.791Z,8.40
2019-02-22T21:04:19.420Z,7.03
2019-02-22T21:06:46.076Z,9.27
2019-02-22T21:09:12.766Z,7.80
2019-02-22T21:11:39.271Z,9.50
2019-02-22T21:14:05.946Z,7.20
2019-02-22T21:16:32.643Z,8.23
2019-02-22T21:18:59.474Z,7.47
2019-02-22T21:21:25.892Z,12.43
2019-02-22T21:23:52.293Z,9.73
2019-02-22T21:26:19.082Z,7.00
2019-02-22T21:28:45.529Z,7.23
2019-02-22T21:31:12.139Z,9.07
2019-02-22T21:33:38.606Z,6.87
2019-02-22T21:36:05.030Z,9.37
2019-02-22T21:38:31.510Z,8.40
2019-02-22T21:40:57.948Z,7.50
2019-02-22T21:43:24.722Z,7.27
2019-02-22T21:45:51.424Z,8.13
2019-02-22T21:48:27.166Z,10.40
2019-02-22T21:50:46.923Z,9.23
2019-02-22T21:53:13.524Z,8.70
2019-02-22T21:55:40.448Z,8.47
2019-02-22T21:58:06.851Z,7.40
2019-02-22T22:00:33.267Z,8.00
2019-02-22T22:03:00.133Z,6.93
2019-02-22T22:05:26.554Z,6.80
2019-02-22T22:07:53.179Z,8.43
2019-02-22T22:10:19.601Z,7.80
2019-02-22T22:12:46.499Z,7.13
2019-02-22T22:15:13.915Z,9.80
2019-02-22T22:17:40.719Z,6.87
2019-02-22T22:20:08.419Z,7.47
2019-02-22T22:22:35.075Z,7.17
2019-02-22T22:25:03.144Z,8.57
2019-02-22T22:27:29.832Z,7.17
2019-02-22T22:29:57.164Z,8.93
2019-02-22T22:32:23.618Z,6.47
2019-02-22T22:34:50.269Z,7.50
2019-02-22T22:37:16.754Z,8.97
2019-02-22T22:39:43.288Z,7.20
2019-02-22T22:42:09.964Z,6.93
2019-02-22T22:44:36.624Z,8.57
2019-02-22T22:47:03.030Z,8.03
2019-02-22T22:49:29.696Z,8.00
2019-02-22T22:51:56.235Z,9.57
2019-02-22T22:54:23.925Z,8.83
2019-02-22T22:56:50.603Z,6.90
2019-02-22T22:59:18.004Z,9.23
2019-02-22T23:01:45.032Z,7.43
2019-02-22T23:04:12.784Z,8.83
2019-02-22T23:06:39.708Z,9.83
2019-02-22T23:09:08.303Z,8.93
2019-02-22T23:11:37.791Z,9.97
2019-02-22T23:14:04.479Z,9.33
2019-02-22T23:16:31.150Z,9.03
2019-02-22T23:19:01.798Z,9.87
2019-02-22T23:21:26.056Z,10.80
2019-02-22T23:23:52.987Z,9.03
2019-02-22T23:26:19.399Z,10.50
2019-02-22T23:28:46.064Z,8.97
2019-02-22T23:31:13.663Z,8.93
2019-02-22T23:33:41.655Z,8.50
2019-02-22T23:36:08.134Z,10.57
2019-02-22T23:38:34.574Z,9.40
2019-02-22T23:41:01.270Z,10.93
2019-02-22T23:43:27.774Z,7.97
2019-02-22T23:45:55.166Z,9.17
2019-02-22T23:48:21.572Z,10.53
2019-02-22T23:50:48.066Z,9.67
2019-02-22T23:53:14.582Z,8.90
2019-02-22T23:55:40.990Z,11.27
2019-02-22T23:58:07.666Z,9.37
